Time;durP1;ratioP1;P1;durP2;ratioP2;P2;SDS_P1;SDS_P2;PMS_P1;PMS_P2;Temp;Humidity;BMP_temperature;BMP_pressure;BME280_temperature;BME280_humidity;BME280_pressure;Samples;Min_cycle;Max_cycle;Signal;HPM_P1;HPM_P2
2022/07/16 00:02:32;;;;;;;4.18;1.80;;;15.40;99.90;;;;;;6244220;22;20031;-78
2022/07/16 00:04:58;;;;;;;3.60;1.73;;;15.40;99.90;;;;;;6267148;22;20015;-76
2022/07/16 00:07:24;;;;;;;4.95;2.00;;;15.40;99.90;;;;;;6268053;22;20072;-77
2022/07/16 00:09:50;;;;;;;3.88;1.50;;;15.50;99.90;;;;;;6215796;22;20440;-77
2022/07/16 00:12:15;;;;;;;4.07;1.40;;;15.50;99.90;;;;;;6268137;22;20095;-76
2022/07/16 00:14:41;;;;;;;5.07;1.83;;;15.50;99.90;;;;;;6266261;22;20320;-77
2022/07/16 00:17:07;;;;;;;1.83;1.70;;;15.50;99.90;;;;;;6267441;22;20015;-79
2022/07/16 00:19:33;;;;;;;4.68;1.92;;;15.50;99.90;;;;;;6241066;22;20526;-81
2022/07/16 00:21:59;;;;;;;4.15;2.10;;;15.50;99.90;;;;;;6216389;22;20022;-80
2022/07/16 00:24:25;;;;;;;6.40;2.33;;;15.50;99.90;;;;;;6241676;22;20091;-82
2022/07/16 00:26:53;;;;;;;2.67;2.08;;;15.40;99.90;;;;;;6241070;22;20353;-86
2022/07/16 00:29:19;;;;;;;2.00;1.83;;;15.40;99.90;;;;;;6216995;22;20030;-86
2022/07/16 00:31:56;;;;;;;3.67;2.55;;;15.30;99.90;;;;;;6266255;22;20019;-91
2022/07/16 00:34:23;;;;;;;7.13;2.40;;;15.30;99.90;;;;;;6217135;22;20027;-86
2022/07/16 00:36:54;;;;;;;5.10;2.20;;;15.20;99.90;;;;;;6215286;22;20019;-85
2022/07/16 00:39:20;;;;;;;5.53;2.45;;;15.20;99.90;;;;;;6218086;22;20490;-86
2022/07/16 00:41:53;;;;;;;4.00;1.90;;;15.10;99.90;;;;;;6218943;22;20142;-88
2022/07/16 00:44:47;;;;;;;4.45;1.77;;;15.10;99.90;;;;;;6219702;22;20023;-88
2022/07/16 00:47:16;;;;;;;6.90;2.05;;;15.10;99.90;;;;;;6218041;22;20051;-83
2022/07/16 00:49:49;;;;;;;4.13;1.50;;;15.10;99.90;;;;;;6240831;22;20393;-88
2022/07/16 00:52:16;;;;;;;4.95;1.80;;;15.10;99.90;;;;;;6243785;22;20011;-86
2022/07/16 00:54:41;;;;;;;6.30;1.70;;;15.10;99.90;;;;;;6241309;22;20022;-87
2022/07/16 00:57:07;;;;;;;5.57;1.42;;;15.10;99.90;;;;;;6240698;22;20094;-83
2022/07/16 00:59:42;;;;;;;7.45;1.88;;;15.10;99.90;;;;;;6242267;22;20070;-90
2022/07/16 01:02:24;;;;;;;5.50;1.60;;;15.10;99.90;;;;;;6240156;22;20026;-91
2022/07/16 01:05:13;;;;;;;3.92;1.40;;;15.00;99.90;;;;;;6216411;22;20073;-91
2022/07/16 01:08:24;;;;;;;5.13;1.50;;;15.00;99.90;;;;;;6266764;22;20019;-90
2022/07/16 01:11:55;;;;;;;5.90;1.50;;;15.00;99.90;;;;;;6261222;22;20102;-90
2022/07/16 01:14:56;;;;;;;5.57;1.38;;;15.00;99.90;;;;;;6267903;22;20024;-90
2022/07/16 01:17:23;;;;;;;5.45;1.48;;;15.00;99.90;;;;;;6241808;22;20286;-89
2022/07/16 01:19:54;;;;;;;7.22;1.17;;;15.00;99.90;;;;;;6264808;22;20119;-88
2022/07/16 01:22:34;;;;;;;8.32;1.17;;;15.00;99.90;;;;;;6242003;22;20102;-88
2022/07/16 01:25:17;;;;;;;6.38;1.55;;;15.00;99.90;;;;;;6244148;22;20435;-89
2022/07/16 01:28:11;;;;;;;3.22;1.10;;;15.00;99.90;;;;;;6265820;22;20474;-88
2022/07/16 01:30:49;;;;;;;2.17;1.00;;;15.00;99.90;;;;;;6244297;22;20083;-88
2022/07/16 01:33:23;;;;;;;7.93;1.30;;;15.00;99.90;;;;;;6214513;22;20526;-88
2022/07/16 01:36:04;;;;;;;4.47;1.27;;;15.00;99.90;;;;;;6267681;22;20202;-86
2022/07/16 01:38:48;;;;;;;4.32;1.10;;;15.10;99.90;;;;;;6216941;22;20082;-87
2022/07/16 01:41:16;;;;;;;3.63;1.13;;;15.00;99.90;;;;;;6264671;22;20024;-87
2022/07/16 01:44:20;;;;;;;4.68;1.73;;;15.00;99.90;;;;;;6267641;22;20665;-87
2022/07/16 01:47:17;;;;;;;5.93;1.25;;;15.00;99.90;;;;;;6248400;22;20528;-88
2022/07/16 01:49:51;;;;;;;2.78;1.05;;;15.00;99.90;;;;;;6241605;22;20343;-86
2022/07/16 01:52:19;;;;;;;5.18;1.10;;;14.90;99.90;;;;;;6215057;22;20076;-87
2022/07/16 01:54:57;;;;;;;6.53;1.15;;;14.90;99.90;;;;;;6265997;22;20023;-87
2022/07/16 01:57:27;;;;;;;3.03;1.10;;;14.80;99.90;;;;;;6265839;22;20130;-85
2022/07/16 01:59:56;;;;;;;4.45;1.00;;;14.80;99.90;;;;;;6218077;22;20020;-88
2022/07/16 02:02:46;;;;;;;6.88;2.40;;;14.80;99.90;;;;;;6217403;22;20027;-87
2022/07/16 02:05:20;;;;;;;6.22;1.35;;;14.70;99.90;;;;;;6217998;22;20054;-87
2022/07/16 02:08:01;;;;;;;5.80;1.30;;;14.70;99.90;;;;;;6243546;22;20089;-90
2022/07/16 02:10:29;;;;;;;3.38;1.02;;;14.60;99.90;;;;;;6192370;22;20020;-86
2022/07/16 02:12:54;;;;;;;2.50;0.85;;;14.50;99.90;;;;;;6218270;22;20522;-86
2022/07/16 02:15:20;;;;;;;1.63;0.88;;;14.50;99.90;;;;;;6216612;22;20098;-84
2022/07/16 02:18:02;;;;;;;2.72;1.17;;;14.50;99.90;;;;;;6243758;22;20091;-90
2022/07/16 02:20:28;;;;;;;3.33;1.13;;;14.40;99.90;;;;;;6267522;22;20016;-85
2022/07/16 02:23:00;;;;;;;3.90;1.27;;;14.40;99.90;;;;;;6268674;22;20089;-87
2022/07/16 02:25:26;;;;;;;3.40;0.80;;;14.50;99.90;;;;;;6191461;22;20043;-84
2022/07/16 02:28:06;;;;;;;2.58;1.00;;;14.50;99.90;;;;;;6243330;22;20396;-87
2022/07/16 02:30:33;;;;;;;2.03;0.93;;;14.60;99.90;;;;;;6218730;22;20027;-87
2022/07/16 02:32:59;;;;;;;3.20;0.88;;;14.60;99.90;;;;;;6241205;22;20019;-83
2022/07/16 02:35:25;;;;;;;3.55;0.88;;;14.60;99.90;;;;;;6269259;22;20018;-85
2022/07/16 02:37:51;;;;;;;3.78;1.00;;;14.70;99.90;;;;;;6216479;22;20034;-88
2022/07/16 02:40:22;;;;;;;2.25;0.90;;;14.60;99.90;;;;;;6192571;22;20342;-88
2022/07/16 02:42:56;;;;;;;5.97;1.17;;;14.60;99.90;;;;;;6269425;22;20019;-88
2022/07/16 02:45:44;;;;;;;4.55;0.80;;;14.60;99.90;;;;;;6267586;22;20030;-89
2022/07/16 02:48:11;;;;;;;3.80;0.95;;;14.50;99.90;;;;;;6217451;22;20024;-86
2022/07/16 02:50:57;;;;;;;3.78;1.15;;;14.50;99.90;;;;;;6216963;22;20074;-87
2022/07/16 02:53:23;;;;;;;5.05;1.60;;;14.50;99.90;;;;;;6268209;22;20086;-88
2022/07/16 02:55:50;;;;;;;8.77;1.13;;;14.40;99.90;;;;;;6242134;22;20054;-87
2022/07/16 02:58:44;;;;;;;4.65;1.10;;;14.50;99.90;;;;;;6267748;22;20500;-83
2022/07/16 03:01:10;;;;;;;3.78;0.85;;;14.40;99.90;;;;;;6268639;22;20019;-86
2022/07/16 03:03:47;;;;;;;3.72;1.48;;;14.30;99.90;;;;;;6216732;22;20023;-87
2022/07/16 03:06:31;;;;;;;5.45;1.35;;;14.30;99.90;;;;;;6194275;22;20113;-89
2022/07/16 03:09:13;;;;;;;7.90;1.40;;;14.20;99.90;;;;;;6216329;22;20020;-88
2022/07/16 03:11:55;;;;;;;7.95;1.80;;;14.10;99.90;;;;;;6226446;22;20053;-84
2022/07/16 03:14:21;;;;;;;2.83;1.42;;;14.10;99.90;;;;;;6192496;22;20039;-88
2022/07/16 03:16:47;;;;;;;2.92;1.75;;;14.00;99.90;;;;;;6216126;22;20134;-87
2022/07/16 03:19:12;;;;;;;8.52;2.35;;;14.00;99.90;;;;;;6268221;22;20385;-87
2022/07/16 03:21:38;;;;;;;2.92;1.88;;;14.00;99.90;;;;;;6191264;22;20418;-81
2022/07/16 03:24:04;;;;;;;4.72;1.70;;;14.10;99.90;;;;;;6191402;22;20344;-80
2022/07/16 03:26:30;;;;;;;4.75;1.80;;;14.10;99.90;;;;;;6242466;22;20011;-85
2022/07/16 03:28:56;;;;;;;5.90;2.30;;;14.10;99.90;;;;;;6241477;22;20104;-88
2022/07/16 03:31:22;;;;;;;9.55;2.00;;;14.10;99.90;;;;;;6192046;22;20024;-85
2022/07/16 03:33:47;;;;;;;6.72;1.65;;;14.10;99.90;;;;;;6215800;22;20012;-82
2022/07/16 03:36:13;;;;;;;6.88;1.98;;;14.00;99.90;;;;;;6217316;22;20073;-84
2022/07/16 03:38:58;;;;;;;9.43;1.83;;;14.00;99.90;;;;;;6215889;22;20019;-85
2022/07/16 03:41:24;;;;;;;4.28;1.52;;;14.10;99.90;;;;;;6246125;22;20532;-85
2022/07/16 03:43:50;;;;;;;6.70;1.40;;;14.10;99.90;;;;;;6241844;22;20019;-83
2022/07/16 03:46:16;;;;;;;3.55;1.20;;;14.10;99.90;;;;;;6266952;22;20027;-85
2022/07/16 03:48:42;;;;;;;9.45;2.58;;;14.10;99.90;;;;;;6242776;22;20024;-82
2022/07/16 03:51:08;;;;;;;7.63;1.20;;;14.10;99.90;;;;;;6241036;22;20030;-81
2022/07/16 03:53:34;;;;;;;3.97;1.23;;;14.10;99.90;;;;;;6242330;22;20011;-84
2022/07/16 03:56:00;;;;;;;2.92;1.00;;;14.10;99.90;;;;;;6266075;22;20481;-82
2022/07/16 03:58:26;;;;;;;9.73;1.48;;;14.20;99.90;;;;;;6242301;22;20105;-84
2022/07/16 04:00:52;;;;;;;6.70;1.17;;;14.20;99.90;;;;;;6216751;22;20435;-82
2022/07/16 04:03:19;;;;;;;5.32;1.42;;;14.30;99.90;;;;;;6241342;22;20465;-82
2022/07/16 04:05:44;;;;;;;3.38;1.42;;;14.30;99.90;;;;;;6241982;22;20023;-83
2022/07/16 04:08:10;;;;;;;6.35;1.70;;;14.30;99.90;;;;;;6215548;22;20683;-78
2022/07/16 04:10:36;;;;;;;4.78;1.15;;;14.40;99.90;;;;;;6217112;22;20019;-81
2022/07/16 04:13:02;;;;;;;4.07;1.45;;;14.40;99.90;;;;;;6215525;22;20027;-83
2022/07/16 04:15:28;;;;;;;3.65;1.88;;;14.40;99.90;;;;;;6241653;22;20350;-80
2022/07/16 04:17:54;;;;;;;5.32;1.27;;;14.40;99.90;;;;;;6216096;22;20022;-79
2022/07/16 04:20:20;;;;;;;3.42;1.05;;;14.40;99.90;;;;;;6216552;22;20051;-80
2022/07/16 04:22:45;;;;;;;9.00;1.73;;;14.40;99.90;;;;;;6191427;22;20012;-80
2022/07/16 04:25:13;;;;;;;3.13;1.13;;;14.30;99.90;;;;;;6239999;22;20114;-82
2022/07/16 04:27:39;;;;;;;6.78;2.05;;;14.30;99.90;;;;;;6216119;22;20015;-82
2022/07/16 04:30:07;;;;;;;7.68;1.98;;;14.30;99.90;;;;;;6240984;22;20031;-81
2022/07/16 04:32:34;;;;;;;5.93;1.83;;;14.20;99.90;;;;;;6216815;22;20011;-80
2022/07/16 04:35:00;;;;;;;5.13;1.73;;;14.30;99.90;;;;;;6240550;22;20012;-82
2022/07/16 04:37:25;;;;;;;4.25;1.75;;;14.20;99.90;;;;;;6216283;22;20077;-80
2022/07/16 04:39:52;;;;;;;4.72;1.65;;;14.20;99.90;;;;;;6241325;22;20595;-82
2022/07/16 04:42:18;;;;;;;12.77;1.50;;;14.30;99.90;;;;;;6266850;22;20031;-82
2022/07/16 04:44:44;;;;;;;8.35;1.88;;;14.50;99.90;;;;;;6268044;22;20011;-83
2022/07/16 04:47:11;;;;;;;7.93;1.90;;;14.60;99.90;;;;;;6190323;22;20050;-85
2022/07/16 04:49:36;;;;;;;10.00;1.52;;;14.60;99.90;;;;;;6216850;22;20105;-79
2022/07/16 04:52:03;;;;;;;12.50;1.80;;;14.70;99.90;;;;;;6215286;22;20019;-83
2022/07/16 04:54:28;;;;;;;8.50;2.50;;;14.70;99.90;;;;;;6267740;22;20038;-81
2022/07/16 04:56:54;;;;;;;3.85;1.10;;;14.70;99.90;;;;;;6240301;22;20644;-82
2022/07/16 04:59:20;;;;;;;4.57;1.02;;;14.70;99.90;;;;;;6216494;22;20091;-85
2022/07/16 05:01:46;;;;;;;5.78;1.35;;;14.60;99.90;;;;;;6191511;22;20331;-87
2022/07/16 05:04:11;;;;;;;6.97;1.50;;;14.60;99.90;;;;;;6215940;22;20434;-82
2022/07/16 05:06:38;;;;;;;5.35;1.20;;;14.70;99.90;;;;;;6191577;22;20016;-85
2022/07/16 05:09:05;;;;;;;4.10;1.20;;;14.70;99.90;;;;;;6215355;22;20026;-85
2022/07/16 05:11:31;;;;;;;7.50;1.45;;;14.80;99.90;;;;;;6217131;22;20016;-83
2022/07/16 05:13:57;;;;;;;8.18;1.52;;;14.80;99.90;;;;;;6240495;22;20019;-86
2022/07/16 05:16:23;;;;;;;2.97;0.90;;;14.90;99.90;;;;;;6216289;22;20055;-84
2022/07/16 05:18:50;;;;;;;9.43;1.30;;;14.90;99.90;;;;;;6241210;22;20035;-83
2022/07/16 05:21:16;;;;;;;6.72;1.35;;;14.90;99.90;;;;;;6215507;22;20597;-87
2022/07/16 05:23:42;;;;;;;13.50;1.98;;;14.90;99.90;;;;;;6242285;22;20435;-83
2022/07/16 05:26:08;;;;;;;8.23;1.40;;;14.90;99.90;;;;;;6266062;22;20438;-85
2022/07/16 05:28:35;;;;;;;8.07;1.40;;;14.90;99.90;;;;;;6191628;22;20016;-88
2022/07/16 05:31:01;;;;;;;7.50;1.83;;;14.90;99.90;;;;;;6214845;22;20011;-85
2022/07/16 05:33:27;;;;;;;5.43;1.27;;;14.90;99.90;;;;;;6192883;22;20057;-88
2022/07/16 05:35:53;;;;;;;13.05;1.75;;;14.90;99.90;;;;;;6217517;22;20019;-80
2022/07/16 05:38:19;;;;;;;3.70;1.00;;;15.10;99.90;;;;;;6218012;22;20016;-80
2022/07/16 05:40:45;;;;;;;7.88;1.40;;;15.20;99.90;;;;;;6193442;22;20099;-84
2022/07/16 05:43:11;;;;;;;7.25;1.58;;;15.20;99.90;;;;;;6217496;22;20016;-80
2022/07/16 05:45:37;;;;;;;10.15;1.60;;;15.20;99.90;;;;;;6218441;22;20020;-80
2022/07/16 05:48:04;;;;;;;10.52;1.60;;;15.10;99.90;;;;;;6267813;22;20320;-84
2022/07/16 05:50:29;;;;;;;4.57;1.15;;;15.10;99.90;;;;;;6218188;22;20023;-86
2022/07/16 05:52:55;;;;;;;8.20;1.10;;;15.00;99.90;;;;;;6217061;22;20015;-81
2022/07/16 05:55:21;;;;;;;5.95;1.52;;;15.10;99.90;;;;;;6268937;22;20055;-80
2022/07/16 05:57:47;;;;;;;6.97;1.17;;;15.10;99.90;;;;;;6243265;22;20025;-80
2022/07/16 06:00:13;;;;;;;10.02;1.60;;;15.10;99.90;;;;;;6217500;22;20094;-83
2022/07/16 06:02:43;;;;;;;6.30;1.42;;;15.30;99.90;;;;;;6243054;22;20526;-83
2022/07/16 06:05:10;;;;;;;4.53;0.85;;;15.30;99.40;;;;;;6242325;22;20016;-81
2022/07/16 06:07:35;;;;;;;4.15;1.20;;;15.30;98.60;;;;;;6218600;22;20077;-78
2022/07/16 06:10:01;;;;;;;4.97;1.00;;;15.40;99.90;;;;;;6241893;22;20020;-78
2022/07/16 06:12:27;;;;;;;5.30;1.75;;;15.50;98.20;;;;;;6243615;22;20447;-78
2022/07/16 06:14:53;;;;;;;4.72;1.08;;;15.50;93.10;;;;;;6217317;22;20118;-79
2022/07/16 06:17:18;;;;;;;7.07;1.50;;;15.60;94.80;;;;;;6217917;22;20019;-79
2022/07/16 06:19:44;;;;;;;7.75;0.85;;;15.60;91.00;;;;;;6242788;22;20016;-79
2022/07/16 06:22:10;;;;;;;4.63;1.08;;;15.50;92.70;;;;;;6242260;22;20069;-77
2022/07/16 06:24:36;;;;;;;6.50;1.17;;;15.50;95.70;;;;;;6242936;22;20073;-78
2022/07/16 06:27:03;;;;;;;5.45;1.05;;;15.50;93.70;;;;;;6267548;22;20027;-78
2022/07/16 06:29:29;;;;;;;6.63;1.38;;;15.50;95.10;;;;;;6243193;22;20098;-77
2022/07/16 06:31:55;;;;;;;4.85;0.88;;;15.50;91.80;;;;;;6241572;22;20054;-77
2022/07/16 06:34:21;;;;;;;5.05;1.05;;;15.50;91.60;;;;;;6269160;22;20019;-77
2022/07/16 06:36:47;;;;;;;9.98;1.45;;;15.60;91.30;;;;;;6217265;22;20027;-76
2022/07/16 06:39:13;;;;;;;4.70;1.05;;;15.60;90.40;;;;;;6242874;22;20015;-76
2022/07/16 06:41:39;;;;;;;5.38;1.30;;;15.70;94.70;;;;;;6268368;22;20098;-77
2022/07/16 06:44:06;;;;;;;4.07;1.25;;;15.70;79.60;;;;;;6241397;22;20479;-76
2022/07/16 06:46:32;;;;;;;3.55;1.02;;;15.70;90.40;;;;;;6268265;22;20027;-78
2022/07/16 06:48:59;;;;;;;4.90;1.00;;;15.60;85.50;;;;;;6242064;22;20047;-76
2022/07/16 06:51:26;;;;;;;7.95;0.90;;;15.60;79.20;;;;;;6242782;22;20043;-76
2022/07/16 06:53:52;;;;;;;3.78;0.90;;;15.70;85.00;;;;;;6268022;22;20450;-76
2022/07/16 06:56:18;;;;;;;4.63;1.00;;;15.80;92.60;;;;;;6268354;22;20030;-76
2022/07/16 06:58:44;;;;;;;2.95;0.77;;;15.90;94.90;;;;;;6241174;22;20051;-77
2022/07/16 07:01:10;;;;;;;5.03;0.95;;;15.90;90.90;;;;;;6241803;22;20016;-76
2022/07/16 07:03:39;;;;;;;5.28;1.48;;;16.00;89.70;;;;;;6268274;22;20020;-74
2022/07/16 07:06:05;;;;;;;2.60;0.80;;;16.10;94.50;;;;;;6267105;22;20047;-74
2022/07/16 07:08:31;;;;;;;5.55;1.25;;;16.20;96.50;;;;;;6242914;22;20027;-76
2022/07/16 07:10:59;;;;;;;2.60;0.73;;;16.20;91.10;;;;;;6241519;22;20113;-74
2022/07/16 07:13:27;;;;;;;4.60;0.98;;;16.20;74.10;;;;;;6268569;22;20074;-73
2022/07/16 07:15:53;;;;;;;4.50;0.82;;;16.30;68.90;;;;;;6217634;22;20038;-75
2022/07/16 07:18:18;;;;;;;4.38;0.65;;;16.30;76.40;;;;;;6267270;22;20621;-74
2022/07/16 07:20:44;;;;;;;3.83;0.82;;;16.40;61.90;;;;;;6217117;22;20076;-74
2022/07/16 07:23:10;;;;;;;2.47;0.80;;;16.50;75.00;;;;;;6241407;22;20023;-75
2022/07/16 07:25:36;;;;;;;5.68;0.90;;;16.70;59.30;;;;;;6242701;22;20020;-74
2022/07/16 07:28:02;;;;;;;7.75;0.90;;;16.90;72.00;;;;;;6241016;22;20038;-74
2022/07/16 07:30:29;;;;;;;4.90;1.25;;;17.10;70.50;;;;;;6267778;22;20761;-73
2022/07/16 07:32:55;;;;;;;9.77;1.13;;;17.00;76.20;;;;;;6237670;22;20077;-73
2022/07/16 07:35:21;;;;;;;2.30;0.80;;;16.80;78.10;;;;;;6265036;22;20417;-73
2022/07/16 07:37:47;;;;;;;5.68;0.80;;;16.50;85.50;;;;;;6239661;22;20551;-73
2022/07/16 07:40:13;;;;;;;7.65;1.10;;;16.40;91.50;;;;;;6263374;22;20217;-73
2022/07/16 07:42:39;;;;;;;9.80;0.93;;;16.30;87.60;;;;;;6264869;22;20094;-73
2022/07/16 07:45:05;;;;;;;8.50;1.10;;;16.30;80.30;;;;;;6238175;22;20473;-71
2022/07/16 07:47:31;;;;;;;2.85;0.88;;;16.30;88.30;;;;;;6264982;22;20045;-73
2022/07/16 07:49:58;;;;;;;4.75;1.27;;;16.30;88.80;;;;;;6264220;22;20024;-72
2022/07/16 07:52:23;;;;;;;5.53;0.80;;;16.30;87.10;;;;;;6265318;22;20027;-72
2022/07/16 07:54:49;;;;;;;5.65;1.00;;;16.40;78.70;;;;;;6238538;22;20023;-72
2022/07/16 07:57:15;;;;;;;4.35;0.90;;;16.50;90.20;;;;;;6213571;22;20421;-73
2022/07/16 07:59:41;;;;;;;6.78;1.08;;;16.70;92.70;;;;;;6265300;22;20015;-72
2022/07/16 08:02:07;;;;;;;7.50;1.05;;;16.70;90.10;;;;;;6264206;22;20120;-73
2022/07/16 08:04:36;;;;;;;9.93;1.55;;;16.70;88.80;;;;;;6239784;22;20059;-73
2022/07/16 08:07:02;;;;;;;4.00;0.97;;;16.70;88.90;;;;;;6238245;22;20207;-74
2022/07/16 08:09:28;;;;;;;5.55;0.88;;;16.70;95.30;;;;;;6213736;22;20034;-74
2022/07/16 08:11:54;;;;;;;5.25;1.25;;;16.80;93.80;;;;;;6239420;22;20012;-73
2022/07/16 08:14:19;;;;;;;6.82;1.10;;;16.70;88.10;;;;;;6265555;22;20028;-73
2022/07/16 08:16:45;;;;;;;4.80;0.90;;;16.50;92.30;;;;;;6267051;22;20387;-73
2022/07/16 08:19:11;;;;;;;2.85;0.68;;;16.50;96.90;;;;;;6265556;22;20073;-73
2022/07/16 08:21:37;;;;;;;2.88;0.90;;;16.30;98.40;;;;;;6267186;22;20099;-73
2022/07/16 08:26:48;;;;;;;8.40;1.48;;;16.20;98.80;;;;;;6224386;22;20081;-73
2022/07/16 08:29:14;;;;;;;9.82;1.25;;;16.70;99.90;;;;;;6267192;22;20384;-73
2022/07/16 08:31:40;;;;;;;5.90;1.35;;;16.90;91.60;;;;;;6266421;22;20474;-73
2022/07/16 08:34:06;;;;;;;5.80;1.05;;;17.20;92.90;;;;;;6267688;22;20016;-72
2022/07/16 08:36:33;;;;;;;7.75;1.45;;;17.70;86.50;;;;;;6266698;22;20024;-72
2022/07/16 08:38:59;;;;;;;5.18;1.17;;;18.10;78.20;;;;;;6240469;22;21087;-73
2022/07/16 08:41:26;;;;;;;4.93;1.02;;;18.20;71.40;;;;;;6238795;22;20020;-72
2022/07/16 08:43:52;;;;;;;7.18;1.67;;;18.10;83.20;;;;;;6241210;22;20336;-73
2022/07/16 08:46:20;;;;;;;4.45;1.13;;;18.00;68.60;;;;;;6263994;22;20058;-72
2022/07/16 08:48:48;;;;;;;7.55;1.00;;;17.70;73.20;;;;;;6240126;22;20026;-72
2022/07/16 08:51:15;;;;;;;6.53;1.30;;;17.40;78.70;;;;;;6264603;22;20020;-71
2022/07/16 08:53:42;;;;;;;6.03;1.15;;;17.50;89.10;;;;;;6236508;22;20019;-75
2022/07/16 08:56:08;;;;;;;8.38;1.35;;;18.00;83.80;;;;;;6264290;22;20463;-73
2022/07/16 08:58:36;;;;;;;6.28;1.48;;;18.30;63.80;;;;;;6262310;22;20019;-72
2022/07/16 09:01:02;;;;;;;5.95;1.70;;;18.40;79.60;;;;;;6264810;22;20022;-73
2022/07/16 09:03:28;;;;;;;7.57;1.83;;;18.20;66.20;;;;;;6262894;22;20098;-73
2022/07/16 09:05:54;;;;;;;3.03;0.85;;;18.20;72.60;;;;;;6263802;22;20016;-74
2022/07/16 09:08:20;;;;;;;5.20;1.30;;;17.80;72.60;;;;;;6239758;22;20509;-73
2022/07/16 09:10:46;;;;;;;6.53;1.17;;;17.50;83.30;;;;;;6264863;22;20015;-73
2022/07/16 09:13:12;;;;;;;5.22;1.38;;;17.10;85.40;;;;;;6216482;22;20019;-73
2022/07/16 09:15:43;;;;;;;3.63;0.80;;;16.80;80.10;;;;;;6240442;22;20367;-73
2022/07/16 09:18:14;;;;;;;4.32;1.27;;;16.70;88.70;;;;;;6243357;22;20024;-73
2022/07/16 09:20:53;;;;;;;6.03;1.10;;;16.70;82.40;;;;;;6241012;22;20350;-72
2022/07/16 09:23:36;;;;;;;4.55;1.10;;;16.50;86.90;;;;;;6243205;22;20015;-73
2022/07/16 09:26:08;;;;;;;8.63;1.00;;;16.40;90.40;;;;;;6268562;22;20023;-73
2022/07/16 09:28:49;;;;;;;5.05;0.80;;;16.30;90.20;;;;;;6241824;22;20069;-73
2022/07/16 09:31:31;;;;;;;8.93;1.50;;;16.30;91.90;;;;;;6268926;22;20077;-72
2022/07/16 09:34:09;;;;;;;5.13;1.35;;;17.00;90.90;;;;;;6267693;22;20019;-73
2022/07/16 09:36:37;;;;;;;5.68;1.25;;;17.40;71.80;;;;;;6268049;22;20026;-74
2022/07/16 09:39:05;;;;;;;5.25;1.00;;;17.90;59.30;;;;;;6268608;22;20511;-72
2022/07/16 09:41:44;;;;;;;3.67;0.73;;;18.20;46.40;;;;;;6267531;22;20019;-74
2022/07/16 09:44:19;;;;;;;4.95;1.13;;;18.40;69.00;;;;;;6243476;22;20524;-75
2022/07/16 09:47:09;;;;;;;7.53;1.10;;;18.60;53.60;;;;;;6241867;22;20346;-75
2022/07/16 09:49:36;;;;;;;;;;;18.70;33.10;;;;;;6268779;22;20019;-73
2022/07/16 09:52:08;;;;;;;9.35;1.55;;;18.70;42.60;;;;;;6243628;22;19925;-72
2022/07/16 09:54:38;;;;;;;6.85;1.30;;;18.80;53.00;;;;;;6267304;22;20078;-73
2022/07/16 09:57:25;;;;;;;4.90;1.00;;;19.00;41.90;;;;;;6268215;22;20502;-74
2022/07/16 09:59:52;;;;;;;5.07;1.15;;;19.00;23.90;;;;;;6242242;22;20058;-74
2022/07/16 10:02:18;;;;;;;6.30;1.38;;;19.10;35.40;;;;;;6243137;22;20353;-72
2022/07/16 10:04:44;;;;;;;12.75;1.20;;;19.10;48.10;;;;;;6268691;22;20035;-73
2022/07/16 10:07:10;;;;;;;6.35;1.10;;;18.80;45.60;;;;;;6264128;22;20410;-73
2022/07/16 10:09:36;;;;;;;4.78;1.10;;;18.50;56.50;;;;;;6265942;22;20110;-73
2022/07/16 10:12:09;;;;;;;11.90;1.27;;;18.50;65.30;;;;;;6239141;22;20047;-72
2022/07/16 10:14:37;;;;;;;8.85;1.58;;;18.50;65.60;;;;;;6266714;22;20030;-73
2022/07/16 10:17:13;;;;;;;7.03;1.63;;;18.40;56.00;;;;;;6264728;22;20027;-73
2022/07/16 10:19:39;;;;;;;4.85;1.00;;;18.10;62.20;;;;;;6267485;22;20023;-74
2022/07/16 10:22:13;;;;;;;5.90;1.30;;;18.00;54.60;;;;;;6240986;22;20073;-72
2022/07/16 10:24:54;;;;;;;6.38;1.35;;;17.90;67.50;;;;;;6263794;22;20023;-73
2022/07/16 10:27:32;;;;;;;6.78;1.23;;;17.90;74.60;;;;;;6268561;22;20103;-73
2022/07/16 10:30:13;;;;;;;2.67;0.60;;;18.10;72.70;;;;;;6264359;22;20433;-73
2022/07/16 10:33:06;;;;;;;4.20;1.05;;;18.20;68.40;;;;;;6267835;22;20308;-73
2022/07/16 10:35:34;;;;;;;6.45;0.95;;;18.10;65.10;;;;;;6268264;22;20042;-74
2022/07/16 10:38:18;;;;;;;6.97;1.23;;;17.90;78.20;;;;;;6265756;22;20028;-76
2022/07/16 10:40:46;;;;;;;3.00;0.95;;;17.60;78.70;;;;;;6242498;22;20023;-73
2022/07/16 10:43:12;;;;;;;4.72;1.30;;;17.30;80.00;;;;;;6267488;22;20073;-72
2022/07/16 10:45:56;;;;;;;5.35;1.25;;;17.10;83.90;;;;;;6265913;22;20114;-72
2022/07/16 10:48:30;;;;;;;5.22;1.42;;;17.00;83.90;;;;;;6268649;22;20027;-73
2022/07/16 10:51:16;;;;;;;5.57;1.17;;;17.10;78.80;;;;;;6265563;22;20462;-73
2022/07/16 10:53:57;;;;;;;8.75;1.40;;;17.40;74.50;;;;;;6268722;22;20095;-74
2022/07/16 10:56:40;;;;;;;5.05;1.20;;;17.80;74.60;;;;;;6241805;22;20047;-73
2022/07/16 10:59:09;;;;;;;9.70;1.77;;;18.00;78.30;;;;;;6265646;22;20034;-72
2022/07/16 11:01:39;;;;;;;4.63;1.25;;;18.30;77.70;;;;;;6241243;22;20054;-75
2022/07/16 11:04:05;;;;;;;4.85;1.10;;;18.40;73.30;;;;;;6264426;22;20023;-74
2022/07/16 11:06:32;;;;;;;6.82;1.08;;;18.20;58.20;;;;;;6241989;22;20051;-74
2022/07/16 11:09:04;;;;;;;2.35;1.00;;;18.20;69.30;;;;;;6266841;22;20015;-73
2022/07/16 11:11:35;;;;;;;4.68;1.38;;;18.30;64.10;;;;;;6267650;22;20023;-73
2022/07/16 11:14:03;;;;;;;4.88;1.40;;;18.30;46.00;;;;;;6267698;22;20450;-74
2022/07/16 11:16:29;;;;;;;6.30;1.20;;;18.10;62.20;;;;;;6266415;22;20031;-73
2022/07/16 11:18:58;;;;;;;6.90;1.45;;;17.90;50.00;;;;;;6267759;22;20020;-74
2022/07/16 11:21:24;;;;;;;6.53;1.30;;;17.70;49.70;;;;;;6240926;22;20020;-72
2022/07/16 11:23:53;;;;;;;5.63;1.10;;;17.60;58.70;;;;;;6268290;22;20253;-72
2022/07/16 11:26:20;;;;;;;3.88;1.20;;;17.50;62.80;;;;;;6267493;22;20586;-72
2022/07/16 11:28:58;;;;;;;5.38;1.30;;;17.60;61.70;;;;;;6241909;22;20068;-74
2022/07/16 11:31:35;;;;;;;9.48;1.50;;;17.80;56.40;;;;;;6267242;22;20371;-74
2022/07/16 11:34:04;;;;;;;4.82;1.25;;;17.90;63.70;;;;;;6240377;22;20015;-74
2022/07/16 11:36:33;;;;;;;5.10;1.40;;;18.00;54.50;;;;;;6267794;22;20055;-74
2022/07/16 11:39:13;;;;;;;5.50;0.80;;;18.00;51.50;;;;;;6266359;22;20020;-73
2022/07/16 11:41:45;;;;;;;4.80;1.20;;;18.10;51.70;;;;;;6267371;22;20107;-72
2022/07/16 11:44:12;;;;;;;7.03;1.00;;;18.20;34.20;;;;;;6241124;22;20446;-72
2022/07/16 11:46:44;;;;;;;4.95;1.23;;;18.30;45.50;;;;;;6266162;22;20047;-74
2022/07/16 11:49:11;;;;;;;5.28;0.90;;;18.20;45.70;;;;;;6241939;22;20101;-74
2022/07/16 11:51:39;;;;;;;8.13;1.50;;;18.20;36.70;;;;;;6240589;22;20051;-73
2022/07/16 11:54:05;;;;;;;6.90;0.95;;;18.20;48.60;;;;;;6241987;22;20016;-72
2022/07/16 11:56:36;;;;;;;6.55;1.33;;;18.20;44.70;;;;;;6266558;22;20031;-74
2022/07/16 11:59:25;;;;;;;3.75;1.08;;;18.40;29.50;;;;;;6266578;22;20027;-72
2022/07/16 12:02:18;;;;;;;3.88;1.20;;;18.50;34.10;;;;;;6267893;22;20030;-74
2022/07/16 12:04:51;;;;;;;9.50;1.50;;;18.40;29.70;;;;;;6237443;22;20055;-72
2022/07/16 12:07:23;;;;;;;7.28;1.30;;;18.50;39.40;;;;;;6266867;22;20047;-72
2022/07/16 12:09:51;;;;;;;5.60;1.25;;;18.60;23.60;;;;;;6267302;22;20042;-73
2022/07/16 12:12:19;;;;;;;4.18;1.23;;;18.60;49.50;;;;;;6265924;22;20020;-73
2022/07/16 12:14:55;;;;;;;8.95;1.35;;;18.70;34.80;;;;;;6267956;22;20069;-73
2022/07/16 12:17:31;;;;;;;4.32;1.00;;;18.50;56.00;;;;;;6265755;22;20099;-73
2022/07/16 12:20:19;;;;;;;6.13;1.00;;;18.40;39.60;;;;;;6267566;22;20114;-73
2022/07/16 12:22:56;;;;;;;7.47;1.27;;;18.40;54.00;;;;;;6267060;22;20023;-72
2022/07/16 12:25:28;;;;;;;3.78;1.10;;;18.20;51.80;;;;;;6265967;22;20018;-72
2022/07/16 12:27:55;;;;;;;6.90;1.52;;;18.10;61.00;;;;;;6266998;22;20054;-72
2022/07/16 12:30:35;;;;;;;8.38;0.88;;;18.10;59.00;;;;;;6265520;22;20023;-72
2022/07/16 12:33:06;;;;;;;3.72;1.00;;;18.10;61.50;;;;;;6266382;22;20051;-72
2022/07/16 12:35:36;;;;;;;7.10;1.05;;;18.20;57.70;;;;;;6240935;22;20089;-73
2022/07/16 12:38:03;;;;;;;2.50;0.98;;;18.30;39.50;;;;;;6266093;22;20058;-72
2022/07/16 12:40:29;;;;;;;4.07;0.90;;;18.40;43.60;;;;;;6267940;22;20499;-72
2022/07/16 12:42:55;;;;;;;3.53;1.45;;;18.60;57.30;;;;;;6265706;22;20016;-73
2022/07/16 12:45:20;;;;;;;5.63;1.25;;;19.00;46.80;;;;;;6241507;22;20023;-73
2022/07/16 12:47:46;;;;;;;4.82;1.13;;;19.20;36.30;;;;;;6265617;22;20015;-72
2022/07/16 12:50:12;;;;;;;3.97;1.30;;;19.20;31.10;;;;;;6241760;22;20016;-72
2022/07/16 12:52:38;;;;;;;3.42;0.80;;;19.10;24.50;;;;;;6266665;22;20043;-72
2022/07/16 13:00:33;;;;;;;5.18;1.05;;;18.70;50.00;;;;;;6265763;22;20466;-72
2022/07/16 13:02:59;;;;;;;8.35;1.30;;;18.70;60.70;;;;;;6266949;22;20216;-71
2022/07/16 13:05:25;;;;;;;9.57;1.38;;;18.90;50.80;;;;;;6266149;22;20091;-71
2022/07/16 13:07:51;;;;;;;3.72;0.98;;;18.80;49.70;;;;;;6267083;22;20065;-72
2022/07/16 13:10:17;;;;;;;7.07;1.10;;;18.60;51.40;;;;;;6241298;22;20024;-72
2022/07/16 13:12:42;;;;;;;4.72;1.17;;;18.40;51.80;;;;;;6240753;22;20443;-72